McAlester, OK

2:23 PM CDT on March 27, 2015 (GMT -0500)
Atoka Municipal | | Change Station
CLOSE
Current Station
Airport
Location: Atoka,
Elevation: 591 ft
Nearby Weather Stations

Elev 591 ft 34.40 °N, 96.15 °W | Updated 8 minutes ago

Overcast
Overcast
54 °F
Feels Like 54 °F
N
6
Wind Variable Wind from North
Gusts 16 mph

Today
High -- | Low -- °F
--% Chance of Precip.
Yesterday
High -- | Low -- °F
Precip. -- in
7:17 AM 7:40 PM
First Quarter, 55% visible
Pressure 30.22 in
Visibility 10.0 miles
Clouds Scattered Clouds 3700 ft
Mostly Cloudy 11000 ft
Dew Point 36 °F
Humidity 51%
Rainfall 0.00 in
Snow Depth Not available.
UV 5 out of 12
Pollen 9.70 out of 12
Air Quality Not available.
Flu Activity Not available.
METAR KAQR 271915Z AUTO 36005G14KT 10SM SCT037 BKN110 12/02 A3022 RMK AO2

More Conditions Fewer Conditions

Pressure 30.22 in
Visibility 10.0 miles
Clouds Scattered Clouds 3700 ft
Mostly Cloudy 11000 ft
Dew Point 36 °F
Humidity 51%
Rainfall 0.00 in
Snow Depth Not available.
UV 5 out of 12
Pollen 9.70 out of 12
Air Quality Not available.
Flu Activity Not available.
METAR KAQR 271915Z AUTO 36005G14KT 10SM SCT037 BKN110 12/02 A3022 RMK AO2

More Conditions Fewer Conditions

10-Day Weather Forecast

Almanac

Astronomy

Mar. 27, 2015 Rise Set
Actual Time
Civil Twilight
Nautical Twilight
Astronomical Twilight
Moon
Length of Visible Light
Length of Day
Tomorrow will be .
, % of the Moon is Illuminated

Today's Extremes

State Highs State Lows

Community

WunderPhotos

Upload Photos

1,808,793 photos uploaded!

WunderBlogs® & News

Nearby

Air Quality

  Air Quality AQ Index Pollutant
Not available.

Snow Depth

Station Depth Elevation

Earthquake Activity

City Distance Mag. Time & Date
Minimum magnitude displayed is 2.5.

Coastal Water Temperatures

Place Temperature

Stations

Nearby Weather Stations

Station Location Temp. Windchill Dew Point Humidity Wind Precip. Elev Updated Type